sensor_id;sensor_type;location;lat;lon;timestamp;P1;durP1;ratioP1;P2;durP2;ratioP2
3052;SDS011;1536;51.098;6.414;2023-02-28T00:00:07;8.20;;;7.43;;
3052;SDS011;1536;51.098;6.414;2023-02-28T00:02:35;11.05;;;7.95;;
3052;SDS011;1536;51.098;6.414;2023-02-28T00:05:02;9.95;;;6.88;;
3052;SDS011;1536;51.098;6.414;2023-02-28T00:07:31;7.22;;;6.35;;
3052;SDS011;1536;51.098;6.414;2023-02-28T00:09:57;8.45;;;6.90;;
3052;SDS011;1536;51.098;6.414;2023-02-28T00:12:25;6.78;;;6.15;;
3052;SDS011;1536;51.098;6.414;2023-02-28T00:14:52;8.07;;;6.43;;
3052;SDS011;1536;51.098;6.414;2023-02-28T00:17:19;8.35;;;6.82;;
3052;SDS011;1536;51.098;6.414;2023-02-28T00:19:46;10.02;;;7.30;;
3052;SDS011;1536;51.098;6.414;2023-02-28T00:22:13;12.55;;;7.95;;
3052;SDS011;1536;51.098;6.414;2023-02-28T00:24:41;9.20;;;8.00;;
3052;SDS011;1536;51.098;6.414;2023-02-28T00:27:08;7.70;;;7.00;;
3052;SDS011;1536;51.098;6.414;2023-02-28T00:29:35;14.23;;;7.82;;
3052;SDS011;1536;51.098;6.414;2023-02-28T00:32:02;9.52;;;7.35;;
3052;SDS011;1536;51.098;6.414;2023-02-28T00:34:29;9.25;;;6.72;;
3052;SDS011;1536;51.098;6.414;2023-02-28T00:36:55;7.55;;;6.85;;
3052;SDS011;1536;51.098;6.414;2023-02-28T00:39:22;8.75;;;7.78;;
3052;SDS011;1536;51.098;6.414;2023-02-28T00:41:50;7.20;;;6.60;;
3052;SDS011;1536;51.098;6.414;2023-02-28T00:44:17;11.82;;;8.00;;
3052;SDS011;1536;51.098;6.414;2023-02-28T00:46:46;8.60;;;7.78;;
3052;SDS011;1536;51.098;6.414;2023-02-28T00:49:13;9.15;;;7.35;;
3052;SDS011;1536;51.098;6.414;2023-02-28T00:51:39;7.95;;;7.15;;
3052;SDS011;1536;51.098;6.414;2023-02-28T00:54:06;7.78;;;6.97;;
3052;SDS011;1536;51.098;6.414;2023-02-28T00:56:33;7.15;;;6.55;;
3052;SDS011;1536;51.098;6.414;2023-02-28T00:59:01;8.30;;;7.40;;
3052;SDS011;1536;51.098;6.414;2023-02-28T01:01:27;8.55;;;7.75;;
3052;SDS011;1536;51.098;6.414;2023-02-28T01:03:54;7.50;;;6.80;;
3052;SDS011;1536;51.098;6.414;2023-02-28T01:06:21;11.48;;;7.55;;
3052;SDS011;1536;51.098;6.414;2023-02-28T01:08:48;8.45;;;7.10;;
3052;SDS011;1536;51.098;6.414;2023-02-28T01:11:16;9.55;;;7.43;;
3052;SDS011;1536;51.098;6.414;2023-02-28T01:13:44;9.18;;;8.23;;
3052;SDS011;1536;51.098;6.414;2023-02-28T01:16:13;8.20;;;7.22;;
3052;SDS011;1536;51.098;6.414;2023-02-28T01:18:40;12.93;;;7.43;;
3052;SDS011;1536;51.098;6.414;2023-02-28T01:21:07;10.13;;;6.80;;
3052;SDS011;1536;51.098;6.414;2023-02-28T01:23:36;7.80;;;7.00;;
3052;SDS011;1536;51.098;6.414;2023-02-28T01:26:05;9.82;;;6.65;;
3052;SDS011;1536;51.098;6.414;2023-02-28T01:28:33;8.05;;;7.25;;
3052;SDS011;1536;51.098;6.414;2023-02-28T01:31:00;9.38;;;7.05;;
3052;SDS011;1536;51.098;6.414;2023-02-28T01:33:28;7.18;;;6.47;;
3052;SDS011;1536;51.098;6.414;2023-02-28T01:35:58;11.48;;;6.70;;
3052;SDS011;1536;51.098;6.414;2023-02-28T01:38:26;7.72;;;7.00;;
3052;SDS011;1536;51.098;6.414;2023-02-28T01:40:53;9.90;;;7.10;;
3052;SDS011;1536;51.098;6.414;2023-02-28T01:43:21;9.27;;;6.70;;
3052;SDS011;1536;51.098;6.414;2023-02-28T01:45:49;10.70;;;7.53;;
3052;SDS011;1536;51.098;6.414;2023-02-28T01:48:16;9.35;;;7.70;;
3052;SDS011;1536;51.098;6.414;2023-02-28T01:50:46;9.80;;;7.70;;
3052;SDS011;1536;51.098;6.414;2023-02-28T01:53:14;7.60;;;6.93;;
3052;SDS011;1536;51.098;6.414;2023-02-28T01:55:45;8.32;;;7.43;;
3052;SDS011;1536;51.098;6.414;2023-02-28T01:58:14;8.25;;;7.45;;
3052;SDS011;1536;51.098;6.414;2023-02-28T02:00:41;8.25;;;6.85;;
3052;SDS011;1536;51.098;6.414;2023-02-28T02:03:08;8.48;;;6.50;;
3052;SDS011;1536;51.098;6.414;2023-02-28T02:05:38;8.50;;;7.53;;
3052;SDS011;1536;51.098;6.414;2023-02-28T02:08:08;10.48;;;7.00;;
3052;SDS011;1536;51.098;6.414;2023-02-28T02:10:39;7.70;;;6.90;;
3052;SDS011;1536;51.098;6.414;2023-02-28T02:13:12;10.10;;;7.65;;
3052;SDS011;1536;51.098;6.414;2023-02-28T02:15:49;7.90;;;7.10;;
3052;SDS011;1536;51.098;6.414;2023-02-28T02:18:26;7.90;;;7.10;;
3052;SDS011;1536;51.098;6.414;2023-02-28T02:21:18;8.23;;;6.72;;
3052;SDS011;1536;51.098;6.414;2023-02-28T02:30:02;7.55;;;6.80;;
3052;SDS011;1536;51.098;6.414;2023-02-28T02:33:00;8.55;;;7.75;;
3052;SDS011;1536;51.098;6.414;2023-02-28T02:35:39;12.85;;;8.02;;
3052;SDS011;1536;51.098;6.414;2023-02-28T02:38:09;7.70;;;7.00;;
3052;SDS011;1536;51.098;6.414;2023-02-28T02:40:43;10.18;;;8.10;;
3052;SDS011;1536;51.098;6.414;2023-02-28T02:43:19;8.55;;;7.75;;
3052;SDS011;1536;51.098;6.414;2023-02-28T02:45:52;9.23;;;7.75;;
3052;SDS011;1536;51.098;6.414;2023-02-28T02:48:21;8.00;;;7.40;;
3052;SDS011;1536;51.098;6.414;2023-02-28T02:50:54;8.48;;;7.00;;
3052;SDS011;1536;51.098;6.414;2023-02-28T02:53:25;8.73;;;7.88;;
3052;SDS011;1536;51.098;6.414;2023-02-28T02:55:56;8.05;;;7.10;;
3052;SDS011;1536;51.098;6.414;2023-02-28T02:58:26;9.10;;;7.35;;
3052;SDS011;1536;51.098;6.414;2023-02-28T03:00:58;8.85;;;7.43;;
3052;SDS011;1536;51.098;6.414;2023-02-28T03:03:27;8.43;;;7.60;;
3052;SDS011;1536;51.098;6.414;2023-02-28T03:05:58;8.13;;;7.53;;
3052;SDS011;1536;51.098;6.414;2023-02-28T03:08:26;8.05;;;7.35;;
3052;SDS011;1536;51.098;6.414;2023-02-28T03:10:55;10.55;;;7.97;;
3052;SDS011;1536;51.098;6.414;2023-02-28T03:13:31;8.27;;;7.25;;
3052;SDS011;1536;51.098;6.414;2023-02-28T03:16:12;8.90;;;8.02;;
3052;SDS011;1536;51.098;6.414;2023-02-28T03:18:51;8.75;;;7.95;;
3052;SDS011;1536;51.098;6.414;2023-02-28T03:21:26;11.60;;;7.75;;
3052;SDS011;1536;51.098;6.414;2023-02-28T03:23:59;10.63;;;8.30;;
3052;SDS011;1536;51.098;6.414;2023-02-28T03:26:31;7.45;;;6.70;;
3052;SDS011;1536;51.098;6.414;2023-02-28T03:29:03;11.93;;;8.10;;
3052;SDS011;1536;51.098;6.414;2023-02-28T03:31:36;8.65;;;7.72;;
3052;SDS011;1536;51.098;6.414;2023-02-28T03:34:06;8.20;;;6.82;;
3052;SDS011;1536;51.098;6.414;2023-02-28T03:36:39;7.60;;;6.90;;
3052;SDS011;1536;51.098;6.414;2023-02-28T03:39:11;8.10;;;7.38;;
3052;SDS011;1536;51.098;6.414;2023-02-28T03:41:42;8.30;;;7.55;;
3052;SDS011;1536;51.098;6.414;2023-02-28T03:44:13;7.93;;;7.22;;
3052;SDS011;1536;51.098;6.414;2023-02-28T03:46:47;8.15;;;7.43;;
3052;SDS011;1536;51.098;6.414;2023-02-28T03:49:19;8.75;;;7.95;;
3052;SDS011;1536;51.098;6.414;2023-02-28T03:51:50;7.72;;;7.05;;
3052;SDS011;1536;51.098;6.414;2023-02-28T03:54:19;8.50;;;7.57;;
3052;SDS011;1536;51.098;6.414;2023-02-28T03:56:51;8.88;;;7.93;;
3052;SDS011;1536;51.098;6.414;2023-02-28T03:59:25;9.00;;;8.07;;
3052;SDS011;1536;51.098;6.414;2023-02-28T04:01:54;8.15;;;7.30;;
3052;SDS011;1536;51.098;6.414;2023-02-28T04:04:23;11.50;;;7.93;;
3052;SDS011;1536;51.098;6.414;2023-02-28T04:06:51;7.70;;;7.10;;
3052;SDS011;1536;51.098;6.414;2023-02-28T04:09:26;8.80;;;7.45;;
3052;SDS011;1536;51.098;6.414;2023-02-28T04:11:53;9.07;;;7.93;;
3052;SDS011;1536;51.098;6.414;2023-02-28T04:14:20;8.02;;;7.32;;
3052;SDS011;1536;51.098;6.414;2023-02-28T04:16:48;7.75;;;7.05;;
3052;SDS011;1536;51.098;6.414;2023-02-28T04:19:15;9.52;;;7.60;;
3052;SDS011;1536;51.098;6.414;2023-02-28T04:21:43;8.13;;;7.10;;
3052;SDS011;1536;51.098;6.414;2023-02-28T04:24:12;7.68;;;6.70;;
3052;SDS011;1536;51.098;6.414;2023-02-28T04:26:41;7.68;;;6.97;;
3052;SDS011;1536;51.098;6.414;2023-02-28T04:29:10;10.05;;;7.47;;
3052;SDS011;1536;51.098;6.414;2023-02-28T04:31:39;7.78;;;6.80;;
3052;SDS011;1536;51.098;6.414;2023-02-28T04:34:06;6.85;;;6.25;;
3052;SDS011;1536;51.098;6.414;2023-02-28T04:36:32;7.18;;;6.45;;
3052;SDS011;1536;51.098;6.414;2023-02-28T04:38:59;9.68;;;6.80;;
3052;SDS011;1536;51.098;6.414;2023-02-28T04:41:27;7.18;;;6.18;;
3052;SDS011;1536;51.098;6.414;2023-02-28T04:43:54;7.80;;;6.20;;
3052;SDS011;1536;51.098;6.414;2023-02-28T04:46:22;7.32;;;6.68;;
3052;SDS011;1536;51.098;6.414;2023-02-28T04:48:49;8.80;;;7.65;;
3052;SDS011;1536;51.098;6.414;2023-02-28T04:51:16;7.60;;;7.00;;
3052;SDS011;1536;51.098;6.414;2023-02-28T04:53:44;9.52;;;6.63;;
3052;SDS011;1536;51.098;6.414;2023-02-28T04:56:12;7.60;;;6.80;;
3052;SDS011;1536;51.098;6.414;2023-02-28T04:58:41;7.03;;;5.95;;
3052;SDS011;1536;51.098;6.414;2023-02-28T05:01:16;8.45;;;5.45;;
3052;SDS011;1536;51.098;6.414;2023-02-28T05:03:44;7.03;;;6.32;;
3052;SDS011;1536;51.098;6.414;2023-02-28T05:06:11;6.68;;;6.07;;
3052;SDS011;1536;51.098;6.414;2023-02-28T05:08:39;6.93;;;6.30;;
3052;SDS011;1536;51.098;6.414;2023-02-28T05:11:06;7.10;;;6.45;;
3052;SDS011;1536;51.098;6.414;2023-02-28T05:13:38;8.98;;;6.90;;
3052;SDS011;1536;51.098;6.414;2023-02-28T05:16:06;10.35;;;7.15;;
3052;SDS011;1536;51.098;6.414;2023-02-28T05:18:33;8.40;;;7.57;;
3052;SDS011;1536;51.098;6.414;2023-02-28T05:21:00;6.50;;;6.00;;
3052;SDS011;1536;51.098;6.414;2023-02-28T05:23:27;6.63;;;6.03;;
3052;SDS011;1536;51.098;6.414;2023-02-28T05:25:54;7.20;;;6.47;;
3052;SDS011;1536;51.098;6.414;2023-02-28T05:28:21;7.10;;;6.47;;
3052;SDS011;1536;51.098;6.414;2023-02-28T05:30:48;10.90;;;6.57;;
3052;SDS011;1536;51.098;6.414;2023-02-28T05:33:16;7.15;;;6.45;;
3052;SDS011;1536;51.098;6.414;2023-02-28T05:35:42;7.13;;;6.53;;
3052;SDS011;1536;51.098;6.414;2023-02-28T05:38:09;12.82;;;7.15;;
3052;SDS011;1536;51.098;6.414;2023-02-28T05:40:37;8.10;;;7.30;;
3052;SDS011;1536;51.098;6.414;2023-02-28T05:43:04;6.22;;;5.72;;
3052;SDS011;1536;51.098;6.414;2023-02-28T05:45:31;6.85;;;6.25;;
3052;SDS011;1536;51.098;6.414;2023-02-28T05:47:58;7.38;;;6.75;;
3052;SDS011;1536;51.098;6.414;2023-02-28T05:50:26;6.50;;;6.00;;
3052;SDS011;1536;51.098;6.414;2023-02-28T05:52:52;7.88;;;6.80;;
3052;SDS011;1536;51.098;6.414;2023-02-28T05:55:19;7.75;;;6.95;;
3052;SDS011;1536;51.098;6.414;2023-02-28T05:57:46;8.68;;;6.53;;
3052;SDS011;1536;51.098;6.414;2023-02-28T06:00:13;8.30;;;6.95;;
3052;SDS011;1536;51.098;6.414;2023-02-28T06:02:42;7.97;;;7.03;;
3052;SDS011;1536;51.098;6.414;2023-02-28T06:05:10;7.00;;;6.40;;
3052;SDS011;1536;51.098;6.414;2023-02-28T06:07:41;7.18;;;6.57;;
3052;SDS011;1536;51.098;6.414;2023-02-28T06:10:08;7.32;;;6.43;;
3052;SDS011;1536;51.098;6.414;2023-02-28T06:12:36;7.70;;;6.80;;
3052;SDS011;1536;51.098;6.414;2023-02-28T06:15:04;8.15;;;7.38;;
3052;SDS011;1536;51.098;6.414;2023-02-28T06:17:31;7.32;;;6.72;;
3052;SDS011;1536;51.098;6.414;2023-02-28T06:19:58;7.47;;;6.82;;
3052;SDS011;1536;51.098;6.414;2023-02-28T06:22:24;7.55;;;6.85;;
3052;SDS011;1536;51.098;6.414;2023-02-28T06:24:52;6.75;;;6.15;;
3052;SDS011;1536;51.098;6.414;2023-02-28T06:27:19;7.05;;;6.53;;
3052;SDS011;1536;51.098;6.414;2023-02-28T06:29:47;6.88;;;6.20;;
3052;SDS011;1536;51.098;6.414;2023-02-28T06:32:13;8.15;;;7.35;;
3052;SDS011;1536;51.098;6.414;2023-02-28T06:34:40;7.90;;;7.20;;
3052;SDS011;1536;51.098;6.414;2023-02-28T06:37:07;7.13;;;6.60;;
3052;SDS011;1536;51.098;6.414;2023-02-28T06:39:33;7.55;;;6.95;;
3052;SDS011;1536;51.098;6.414;2023-02-28T06:42:01;7.32;;;6.57;;
3052;SDS011;1536;51.098;6.414;2023-02-28T06:44:28;7.68;;;7.00;;
3052;SDS011;1536;51.098;6.414;2023-02-28T06:47:00;7.05;;;6.50;;
3052;SDS011;1536;51.098;6.414;2023-02-28T06:49:28;8.20;;;6.75;;
3052;SDS011;1536;51.098;6.414;2023-02-28T06:51:55;8.27;;;6.95;;
3052;SDS011;1536;51.098;6.414;2023-02-28T06:54:22;6.50;;;5.85;;
3052;SDS011;1536;51.098;6.414;2023-02-28T06:56:48;10.52;;;6.90;;
3052;SDS011;1536;51.098;6.414;2023-02-28T06:59:16;6.93;;;6.03;;
3052;SDS011;1536;51.098;6.414;2023-02-28T07:01:43;6.65;;;6.15;;
3052;SDS011;1536;51.098;6.414;2023-02-28T07:04:10;7.28;;;6.57;;
3052;SDS011;1536;51.098;6.414;2023-02-28T07:06:38;6.45;;;5.95;;
3052;SDS011;1536;51.098;6.414;2023-02-28T07:09:05;7.03;;;6.32;;
3052;SDS011;1536;51.098;6.414;2023-02-28T07:11:32;8.77;;;6.60;;
3052;SDS011;1536;51.098;6.414;2023-02-28T07:13:58;6.70;;;6.10;;
3052;SDS011;1536;51.098;6.414;2023-02-28T07:16:27;7.88;;;6.45;;
3052;SDS011;1536;51.098;6.414;2023-02-28T07:18:53;9.75;;;7.10;;
3052;SDS011;1536;51.098;6.414;2023-02-28T07:21:21;6.82;;;6.10;;
3052;SDS011;1536;51.098;6.414;2023-02-28T07:23:47;7.07;;;6.55;;
3052;SDS011;1536;51.098;6.414;2023-02-28T07:26:15;6.95;;;6.30;;
3052;SDS011;1536;51.098;6.414;2023-02-28T07:28:43;7.25;;;6.65;;
3052;SDS011;1536;51.098;6.414;2023-02-28T07:31:11;7.82;;;7.05;;
3052;SDS011;1536;51.098;6.414;2023-02-28T07:33:41;6.85;;;6.22;;
3052;SDS011;1536;51.098;6.414;2023-02-28T07:36:09;9.85;;;7.15;;
3052;SDS011;1536;51.098;6.414;2023-02-28T07:38:40;8.13;;;7.30;;
3052;SDS011;1536;51.098;6.414;2023-02-28T07:41:07;8.43;;;7.53;;
3052;SDS011;1536;51.098;6.414;2023-02-28T07:43:34;9.07;;;6.70;;
3052;SDS011;1536;51.098;6.414;2023-02-28T07:46:02;8.82;;;7.25;;
3052;SDS011;1536;51.098;6.414;2023-02-28T07:48:29;8.20;;;7.18;;
3052;SDS011;1536;51.098;6.414;2023-02-28T07:50:57;7.70;;;7.05;;
3052;SDS011;1536;51.098;6.414;2023-02-28T07:53:25;8.30;;;7.05;;
3052;SDS011;1536;51.098;6.414;2023-02-28T07:55:54;6.75;;;6.15;;
3052;SDS011;1536;51.098;6.414;2023-02-28T07:58:21;7.63;;;6.93;;
3052;SDS011;1536;51.098;6.414;2023-02-28T08:00:48;7.72;;;6.75;;
3052;SDS011;1536;51.098;6.414;2023-02-28T08:03:15;6.97;;;6.38;;
3052;SDS011;1536;51.098;6.414;2023-02-28T08:05:43;6.97;;;6.47;;
3052;SDS011;1536;51.098;6.414;2023-02-28T08:08:11;7.30;;;6.60;;
3052;SDS011;1536;51.098;6.414;2023-02-28T08:10:37;7.60;;;7.00;;
3052;SDS011;1536;51.098;6.414;2023-02-28T08:13:04;6.90;;;6.30;;
3052;SDS011;1536;51.098;6.414;2023-02-28T08:15:31;6.70;;;6.20;;
3052;SDS011;1536;51.098;6.414;2023-02-28T08:17:57;8.07;;;6.55;;
3052;SDS011;1536;51.098;6.414;2023-02-28T08:20:24;6.78;;;6.13;;
3052;SDS011;1536;51.098;6.414;2023-02-28T08:22:53;8.82;;;6.50;;
3052;SDS011;1536;51.098;6.414;2023-02-28T08:25:21;7.00;;;6.40;;
3052;SDS011;1536;51.098;6.414;2023-02-28T08:27:49;7.10;;;6.50;;
3052;SDS011;1536;51.098;6.414;2023-02-28T08:30:16;7.30;;;6.43;;
3052;SDS011;1536;51.098;6.414;2023-02-28T08:32:43;11.88;;;5.78;;
3052;SDS011;1536;51.098;6.414;2023-02-28T08:35:10;6.72;;;6.05;;
3052;SDS011;1536;51.098;6.414;2023-02-28T08:37:37;5.90;;;5.45;;
3052;SDS011;1536;51.098;6.414;2023-02-28T08:40:04;5.82;;;5.43;;
3052;SDS011;1536;51.098;6.414;2023-02-28T08:42:32;6.75;;;6.15;;
3052;SDS011;1536;51.098;6.414;2023-02-28T08:44:59;8.02;;;6.25;;
3052;SDS011;1536;51.098;6.414;2023-02-28T08:47:26;7.13;;;5.50;;
3052;SDS011;1536;51.098;6.414;2023-02-28T08:49:53;5.70;;;5.30;;
3052;SDS011;1536;51.098;6.414;2023-02-28T08:52:19;6.38;;;5.78;;
3052;SDS011;1536;51.098;6.414;2023-02-28T08:54:46;6.90;;;5.60;;
3052;SDS011;1536;51.098;6.414;2023-02-28T08:57:13;5.35;;;4.90;;
3052;SDS011;1536;51.098;6.414;2023-02-28T08:59:41;4.95;;;4.65;;
3052;SDS011;1536;51.098;6.414;2023-02-28T09:02:08;7.13;;;5.38;;
3052;SDS011;1536;51.098;6.414;2023-02-28T09:04:38;5.85;;;5.03;;
3052;SDS011;1536;51.098;6.414;2023-02-28T09:07:04;4.18;;;3.88;;
3052;SDS011;1536;51.098;6.414;2023-02-28T09:09:31;4.93;;;4.13;;
3052;SDS011;1536;51.098;6.414;2023-02-28T09:11:58;4.47;;;4.10;;
3052;SDS011;1536;51.098;6.414;2023-02-28T09:14:25;4.82;;;4.53;;
3052;SDS011;1536;51.098;6.414;2023-02-28T09:16:53;10.73;;;4.65;;
3052;SDS011;1536;51.098;6.414;2023-02-28T09:19:20;4.40;;;4.10;;
3052;SDS011;1536;51.098;6.414;2023-02-28T09:21:47;5.07;;;4.72;;
3052;SDS011;1536;51.098;6.414;2023-02-28T09:24:13;4.25;;;3.95;;
3052;SDS011;1536;51.098;6.414;2023-02-28T09:26:40;4.07;;;3.88;;
3052;SDS011;1536;51.098;6.414;2023-02-28T09:29:07;4.90;;;4.50;;
3052;SDS011;1536;51.098;6.414;2023-02-28T09:31:34;4.40;;;4.10;;
3052;SDS011;1536;51.098;6.414;2023-02-28T09:34:03;5.07;;;4.68;;
3052;SDS011;1536;51.098;6.414;2023-02-28T09:36:30;3.90;;;3.70;;
3052;SDS011;1536;51.098;6.414;2023-02-28T09:38:58;5.30;;;4.10;;
3052;SDS011;1536;51.098;6.414;2023-02-28T09:41:25;4.30;;;4.00;;
3052;SDS011;1536;51.098;6.414;2023-02-28T09:43:56;3.83;;;3.63;;
3052;SDS011;1536;51.098;6.414;2023-02-28T09:46:27;3.78;;;3.58;;
3052;SDS011;1536;51.098;6.414;2023-02-28T09:48:58;3.90;;;3.60;;
3052;SDS011;1536;51.098;6.414;2023-02-28T09:51:33;4.80;;;4.40;;
3052;SDS011;1536;51.098;6.414;2023-02-28T09:54:09;4.30;;;4.00;;
3052;SDS011;1536;51.098;6.414;2023-02-28T09:56:44;4.00;;;3.70;;
3052;SDS011;1536;51.098;6.414;2023-02-28T09:59:15;3.67;;;3.47;;
3052;SDS011;1536;51.098;6.414;2023-02-28T10:01:57;4.80;;;4.32;;
3052;SDS011;1536;51.098;6.414;2023-02-28T10:04:39;15.27;;;4.95;;
3052;SDS011;1536;51.098;6.414;2023-02-28T10:07:18;4.00;;;3.80;;
3052;SDS011;1536;51.098;6.414;2023-02-28T10:09:51;3.88;;;3.67;;
3052;SDS011;1536;51.098;6.414;2023-02-28T10:12:21;3.95;;;3.65;;
3052;SDS011;1536;51.098;6.414;2023-02-28T10:14:49;3.85;;;3.65;;
3052;SDS011;1536;51.098;6.414;2023-02-28T10:17:19;4.47;;;4.07;;
3052;SDS011;1536;51.098;6.414;2023-02-28T10:19:53;4.22;;;3.83;;
3052;SDS011;1536;51.098;6.414;2023-02-28T10:22:26;4.57;;;4.10;;
3052;SDS011;1536;51.098;6.414;2023-02-28T10:24:58;4.20;;;3.90;;
3052;SDS011;1536;51.098;6.414;2023-02-28T10:27:28;4.60;;;4.30;;
3052;SDS011;1536;51.098;6.414;2023-02-28T10:29:57;4.55;;;4.15;;
3052;SDS011;1536;51.098;6.414;2023-02-28T10:32:26;5.60;;;4.20;;
3052;SDS011;1536;51.098;6.414;2023-02-28T10:34:57;4.28;;;3.97;;
3052;SDS011;1536;51.098;6.414;2023-02-28T10:37:26;4.60;;;4.30;;
3052;SDS011;1536;51.098;6.414;2023-02-28T10:39:53;4.85;;;4.45;;
3052;SDS011;1536;51.098;6.414;2023-02-28T10:42:21;4.82;;;4.53;;
3052;SDS011;1536;51.098;6.414;2023-02-28T10:45:04;4.20;;;4.00;;
3052;SDS011;1536;51.098;6.414;2023-02-28T10:47:33;4.40;;;4.10;;
3052;SDS011;1536;51.098;6.414;2023-02-28T10:50:04;4.85;;;4.07;;
3052;SDS011;1536;51.098;6.414;2023-02-28T10:52:32;4.93;;;4.43;;
3052;SDS011;1536;51.098;6.414;2023-02-28T10:55:15;4.97;;;4.50;;
3052;SDS011;1536;51.098;6.414;2023-02-28T10:57:46;5.10;;;4.80;;
3052;SDS011;1536;51.098;6.414;2023-02-28T11:00:14;4.90;;;4.50;;
3052;SDS011;1536;51.098;6.414;2023-02-28T11:02:43;5.15;;;4.75;;
3052;SDS011;1536;51.098;6.414;2023-02-28T11:05:23;5.53;;;5.03;;
3052;SDS011;1536;51.098;6.414;2023-02-28T11:07:51;5.90;;;5.40;;
3052;SDS011;1536;51.098;6.414;2023-02-28T11:10:20;4.90;;;4.40;;
3052;SDS011;1536;51.098;6.414;2023-02-28T11:12:53;5.93;;;4.50;;
3052;SDS011;1536;51.098;6.414;2023-02-28T11:15:22;5.03;;;4.63;;
3052;SDS011;1536;51.098;6.414;2023-02-28T11:17:55;4.60;;;4.25;;
3052;SDS011;1536;51.098;6.414;2023-02-28T11:20:26;4.40;;;4.00;;
3052;SDS011;1536;51.098;6.414;2023-02-28T11:22:55;4.10;;;3.80;;
3052;SDS011;1536;51.098;6.414;2023-02-28T11:25:26;5.20;;;4.20;;
3052;SDS011;1536;51.098;6.414;2023-02-28T11:27:58;4.53;;;4.15;;
3052;SDS011;1536;51.098;6.414;2023-02-28T11:30:34;4.50;;;4.20;;
3052;SDS011;1536;51.098;6.414;2023-02-28T11:35:54;5.25;;;4.85;;
3052;SDS011;1536;51.098;6.414;2023-02-28T11:38:24;6.90;;;4.22;;
3052;SDS011;1536;51.098;6.414;2023-02-28T11:40:57;5.72;;;5.25;;
3052;SDS011;1536;51.098;6.414;2023-02-28T11:43:38;7.38;;;4.43;;
3052;SDS011;1536;51.098;6.414;2023-02-28T11:46:19;4.25;;;3.92;;
3052;SDS011;1536;51.098;6.414;2023-02-28T11:48:55;5.45;;;4.97;;
3052;SDS011;1536;51.098;6.414;2023-02-28T11:51:31;4.55;;;4.25;;
3052;SDS011;1536;51.098;6.414;2023-02-28T11:56:54;4.75;;;4.35;;
3052;SDS011;1536;51.098;6.414;2023-02-28T12:02:23;5.30;;;3.83;;
3052;SDS011;1536;51.098;6.414;2023-02-28T12:04:56;4.72;;;4.40;;
3052;SDS011;1536;51.098;6.414;2023-02-28T12:07:39;4.78;;;4.40;;
3052;SDS011;1536;51.098;6.414;2023-02-28T12:10:19;3.95;;;3.65;;
3052;SDS011;1536;51.098;6.414;2023-02-28T12:12:52;5.85;;;4.35;;
3052;SDS011;1536;51.098;6.414;2023-02-28T12:15:41;4.35;;;3.95;;
3052;SDS011;1536;51.098;6.414;2023-02-28T12:18:48;4.68;;;4.30;;
3052;SDS011;1536;51.098;6.414;2023-02-28T12:21:30;3.95;;;3.70;;
3052;SDS011;1536;51.098;6.414;2023-02-28T12:24:08;4.45;;;4.15;;
3052;SDS011;1536;51.098;6.414;2023-02-28T12:26:50;5.28;;;4.93;;
3052;SDS011;1536;51.098;6.414;2023-02-28T12:29:19;4.53;;;4.25;;
3052;SDS011;1536;51.098;6.414;2023-02-28T12:31:51;4.60;;;4.20;;
3052;SDS011;1536;51.098;6.414;2023-02-28T12:34:22;4.57;;;4.18;;
3052;SDS011;1536;51.098;6.414;2023-02-28T12:36:54;4.53;;;4.22;;
3052;SDS011;1536;51.098;6.414;2023-02-28T12:39:25;4.85;;;4.45;;
3052;SDS011;1536;51.098;6.414;2023-02-28T12:41:56;4.55;;;4.15;;
3052;SDS011;1536;51.098;6.414;2023-02-28T12:44:28;5.03;;;4.63;;
3052;SDS011;1536;51.098;6.414;2023-02-28T12:46:59;4.82;;;4.43;;
3052;SDS011;1536;51.098;6.414;2023-02-28T12:49:30;5.35;;;4.10;;
3052;SDS011;1536;51.098;6.414;2023-02-28T12:52:00;4.88;;;4.50;;
3052;SDS011;1536;51.098;6.414;2023-02-28T12:54:32;5.05;;;4.68;;
3052;SDS011;1536;51.098;6.414;2023-02-28T12:57:06;4.97;;;4.47;;
3052;SDS011;1536;51.098;6.414;2023-02-28T12:59:39;4.40;;;4.10;;
3052;SDS011;1536;51.098;6.414;2023-02-28T13:02:14;4.60;;;4.30;;
3052;SDS011;1536;51.098;6.414;2023-02-28T13:11:25;4.78;;;4.35;;
3052;SDS011;1536;51.098;6.414;2023-02-28T13:13:58;4.70;;;4.30;;
3052;SDS011;1536;51.098;6.414;2023-02-28T13:16:26;4.18;;;3.80;;
3052;SDS011;1536;51.098;6.414;2023-02-28T13:18:53;4.55;;;4.20;;
3052;SDS011;1536;51.098;6.414;2023-02-28T13:21:41;4.38;;;4.07;;
3052;SDS011;1536;51.098;6.414;2023-02-28T13:24:09;5.40;;;4.95;;
3052;SDS011;1536;51.098;6.414;2023-02-28T13:29:53;5.00;;;4.60;;
3052;SDS011;1536;51.098;6.414;2023-02-28T13:32:30;5.03;;;4.63;;
3052;SDS011;1536;51.098;6.414;2023-02-28T13:40:56;5.35;;;4.40;;
3052;SDS011;1536;51.098;6.414;2023-02-28T13:44:02;4.70;;;4.40;;
3052;SDS011;1536;51.098;6.414;2023-02-28T13:46:31;4.95;;;4.43;;
3052;SDS011;1536;51.098;6.414;2023-02-28T13:51:44;4.88;;;4.55;;
3052;SDS011;1536;51.098;6.414;2023-02-28T13:54:22;5.80;;;5.30;;
3052;SDS011;1536;51.098;6.414;2023-02-28T13:56:58;6.80;;;6.20;;
3052;SDS011;1536;51.098;6.414;2023-02-28T13:59:36;6.22;;;5.05;;
3052;SDS011;1536;51.098;6.414;2023-02-28T14:02:24;5.30;;;4.80;;
3052;SDS011;1536;51.098;6.414;2023-02-28T14:05:05;4.85;;;4.55;;
3052;SDS011;1536;51.098;6.414;2023-02-28T14:07:39;5.22;;;4.50;;
3052;SDS011;1536;51.098;6.414;2023-02-28T14:10:15;5.53;;;5.15;;
3052;SDS011;1536;51.098;6.414;2023-02-28T14:12:52;4.72;;;4.40;;
3052;SDS011;1536;51.098;6.414;2023-02-28T14:15:34;5.78;;;5.15;;
3052;SDS011;1536;51.098;6.414;2023-02-28T14:18:21;4.95;;;4.30;;
3052;SDS011;1536;51.098;6.414;2023-02-28T14:20:52;6.60;;;5.75;;
3052;SDS011;1536;51.098;6.414;2023-02-28T14:23:31;5.57;;;5.07;;
3052;SDS011;1536;51.098;6.414;2023-02-28T14:26:09;5.25;;;4.80;;
3052;SDS011;1536;51.098;6.414;2023-02-28T14:28:49;7.05;;;5.32;;
3052;SDS011;1536;51.098;6.414;2023-02-28T14:31:32;5.13;;;4.63;;
3052;SDS011;1536;51.098;6.414;2023-02-28T14:34:05;7.18;;;4.85;;
3052;SDS011;1536;51.098;6.414;2023-02-28T14:36:47;6.57;;;6.07;;
3052;SDS011;1536;51.098;6.414;2023-02-28T14:39:16;5.30;;;4.80;;
3052;SDS011;1536;51.098;6.414;2023-02-28T14:41:46;7.22;;;4.95;;
3052;SDS011;1536;51.098;6.414;2023-02-28T14:44:14;20.33;;;8.95;;
3052;SDS011;1536;51.098;6.414;2023-02-28T14:46:44;16.42;;;9.00;;
3052;SDS011;1536;51.098;6.414;2023-02-28T14:49:15;21.63;;;10.85;;
3052;SDS011;1536;51.098;6.414;2023-02-28T14:51:44;14.50;;;7.40;;
3052;SDS011;1536;51.098;6.414;2023-02-28T14:54:13;20.35;;;8.05;;
3052;SDS011;1536;51.098;6.414;2023-02-28T14:56:42;16.70;;;6.63;;
3052;SDS011;1536;51.098;6.414;2023-02-28T14:59:23;8.13;;;5.78;;
3052;SDS011;1536;51.098;6.414;2023-02-28T15:01:51;5.70;;;4.97;;
3052;SDS011;1536;51.098;6.414;2023-02-28T15:04:34;5.70;;;5.20;;
3052;SDS011;1536;51.098;6.414;2023-02-28T15:07:07;6.45;;;5.20;;
3052;SDS011;1536;51.098;6.414;2023-02-28T15:09:34;8.18;;;6.18;;
3052;SDS011;1536;51.098;6.414;2023-02-28T15:12:01;6.00;;;5.50;;
3052;SDS011;1536;51.098;6.414;2023-02-28T15:14:28;7.10;;;5.88;;
3052;SDS011;1536;51.098;6.414;2023-02-28T15:16:56;5.53;;;5.13;;
3052;SDS011;1536;51.098;6.414;2023-02-28T15:19:25;7.25;;;6.60;;
3052;SDS011;1536;51.098;6.414;2023-02-28T15:21:57;6.18;;;5.55;;
3052;SDS011;1536;51.098;6.414;2023-02-28T15:24:30;6.10;;;5.13;;
3052;SDS011;1536;51.098;6.414;2023-02-28T15:27:04;5.90;;;5.40;;
3052;SDS011;1536;51.098;6.414;2023-02-28T15:29:34;5.10;;;4.80;;
3052;SDS011;1536;51.098;6.414;2023-02-28T15:32:16;6.97;;;6.30;;
3052;SDS011;1536;51.098;6.414;2023-02-28T15:34:50;6.80;;;6.20;;
3052;SDS011;1536;51.098;6.414;2023-02-28T15:37:33;6.63;;;5.35;;
3052;SDS011;1536;51.098;6.414;2023-02-28T15:40:10;6.93;;;6.22;;
3052;SDS011;1536;51.098;6.414;2023-02-28T15:42:40;7.95;;;5.95;;
3052;SDS011;1536;51.098;6.414;2023-02-28T15:48:03;5.55;;;5.05;;
3052;SDS011;1536;51.098;6.414;2023-02-28T15:50:30;5.18;;;4.88;;
3052;SDS011;1536;51.098;6.414;2023-02-28T15:52:58;8.52;;;5.20;;
3052;SDS011;1536;51.098;6.414;2023-02-28T15:55:28;5.45;;;5.05;;
3052;SDS011;1536;51.098;6.414;2023-02-28T15:57:56;5.32;;;4.97;;
3052;SDS011;1536;51.098;6.414;2023-02-28T16:00:27;5.13;;;4.65;;
3052;SDS011;1536;51.098;6.414;2023-02-28T16:02:54;6.63;;;6.03;;
3052;SDS011;1536;51.098;6.414;2023-02-28T16:05:22;6.65;;;5.40;;
3052;SDS011;1536;51.098;6.414;2023-02-28T16:07:55;6.05;;;5.15;;
3052;SDS011;1536;51.098;6.414;2023-02-28T16:10:25;5.90;;;5.40;;